createdAt,value
2022-09-17T00:03:23.361Z,23.90
2022-09-17T00:11:33.225Z,23.80
2022-09-17T00:19:38.556Z,23.80
2022-09-17T00:27:46.516Z,23.70
2022-09-17T00:36:01.301Z,23.30
2022-09-17T00:44:36.383Z,23.50
2022-09-17T00:52:48.605Z,23.40
2022-09-17T01:00:53.981Z,23.40
2022-09-17T01:09:29.470Z,23.60
2022-09-17T01:17:45.470Z,23.70
2022-09-17T01:26:09.854Z,23.70
2022-09-17T01:34:27.126Z,23.90
2022-09-17T01:42:39.362Z,23.90
2022-09-17T01:50:52.214Z,24.00
2022-09-17T01:59:05.533Z,24.00
2022-09-17T02:07:16.290Z,24.00
2022-09-17T02:15:26.752Z,24.00
2022-09-17T02:23:39.784Z,23.90
2022-09-17T02:31:45.185Z,23.80
2022-09-17T02:39:53.379Z,23.80
2022-09-17T02:48:37.367Z,23.80
2022-09-17T02:56:55.195Z,23.90
2022-09-17T03:05:00.961Z,23.70
2022-09-17T03:13:09.107Z,23.80
2022-09-17T03:21:14.611Z,23.80
2022-09-17T03:29:22.660Z,23.70
2022-09-17T03:37:32.754Z,23.40
2022-09-17T03:45:41.022Z,23.40
2022-09-17T03:53:46.395Z,23.20
2022-09-17T04:01:54.488Z,23.30
2022-09-17T04:09:59.875Z,23.50
2022-09-17T04:18:07.990Z,23.50
2022-09-17T04:26:13.588Z,23.10
2022-09-17T04:34:21.579Z,23.20
2022-09-17T04:42:27.069Z,23.10
2022-09-17T04:50:35.373Z,23.30
2022-09-17T04:58:40.696Z,23.30
2022-09-17T05:06:48.576Z,23.40
2022-09-17T05:14:53.911Z,23.30
2022-09-17T05:23:01.799Z,23.50
2022-09-17T05:31:07.228Z,23.50
2022-09-17T05:39:15.266Z,23.60
2022-09-17T05:47:20.581Z,23.40
2022-09-17T05:55:28.783Z,23.10
2022-09-17T06:03:34.098Z,22.70
2022-09-17T06:11:42.187Z,22.30
2022-09-17T06:19:47.559Z,22.10
2022-09-17T06:27:55.472Z,22.10
2022-09-17T06:36:03.146Z,22.00
2022-09-17T06:44:11.126Z,21.70
2022-09-17T06:52:16.394Z,21.20
2022-09-17T07:00:24.392Z,21.10
2022-09-17T07:08:29.929Z,20.90
2022-09-17T07:16:38.689Z,21.00
2022-09-17T07:24:43.999Z,20.80
2022-09-17T07:32:51.904Z,20.70
2022-09-17T07:41:01.790Z,20.50
2022-09-17T07:49:09.706Z,20.20
2022-09-17T07:57:14.952Z,20.30
2022-09-17T08:05:22.864Z,20.30
2022-09-17T08:13:28.196Z,20.20
2022-09-17T08:21:36.183Z,20.30
2022-09-17T08:29:41.442Z,20.40
2022-09-17T08:37:49.603Z,20.70
2022-09-17T08:45:57.532Z,20.60
2022-09-17T08:54:13.470Z,21.00
2022-09-17T09:02:29.572Z,21.20
2022-09-17T09:10:49.085Z,21.30
2022-09-17T09:18:57.706Z,21.40
2022-09-17T09:27:17.880Z,21.40
2022-09-17T09:35:25.140Z,21.80
2022-09-17T09:44:02.848Z,21.80
2022-09-17T09:52:20.210Z,21.70
2022-09-17T10:00:32.114Z,21.80
2022-09-17T10:08:39.294Z,22.10
2022-09-17T10:16:47.203Z,22.60
2022-09-17T10:24:53.416Z,23.00
2022-09-17T10:33:19.206Z,23.20
2022-09-17T10:41:25.766Z,23.20
2022-09-17T10:49:40.101Z,23.20
2022-09-17T10:58:05.212Z,23.20
2022-09-17T11:06:32.894Z,23.40
2022-09-17T11:14:55.261Z,23.50
2022-09-17T11:23:17.355Z,23.60
2022-09-17T11:31:33.584Z,23.50
2022-09-17T11:39:48.169Z,23.70
2022-09-17T11:47:57.478Z,23.90
2022-09-17T11:56:11.381Z,23.60
2022-09-17T12:04:38.545Z,24.00
2022-09-17T12:12:55.257Z,24.80
2022-09-17T12:21:03.438Z,25.30
2022-09-17T12:29:24.122Z,24.70
2022-09-17T12:37:39.891Z,24.80
2022-09-17T12:46:02.452Z,24.90
2022-09-17T12:54:13.657Z,24.70
2022-09-17T13:02:26.399Z,24.70
2022-09-17T13:11:08.706Z,24.70
2022-09-17T13:19:31.363Z,24.40
2022-09-17T13:27:38.357Z,24.30
2022-09-17T13:35:53.321Z,24.20
2022-09-17T13:43:58.814Z,23.80
2022-09-17T13:52:11.691Z,23.70
2022-09-17T14:00:47.803Z,23.90
2022-09-17T14:08:58.049Z,23.70
2022-09-17T14:17:03.664Z,23.40
2022-09-17T14:25:31.361Z,23.20
2022-09-17T14:33:37.594Z,23.00
2022-09-17T14:41:47.010Z,22.90
2022-09-17T14:49:52.630Z,22.80
2022-09-17T14:58:02.654Z,22.50
2022-09-17T15:06:08.200Z,22.50
2022-09-17T15:14:21.447Z,22.40
2022-09-17T15:22:30.219Z,22.30
2022-09-17T15:30:38.200Z,21.80
2022-09-17T15:38:44.791Z,21.60
2022-09-17T15:46:52.985Z,21.20
2022-09-17T15:54:58.299Z,20.90
2022-09-17T16:03:53.662Z,21.00
2022-09-17T16:11:58.924Z,20.60
2022-09-17T16:20:11.185Z,20.60
2022-09-17T16:28:19.572Z,21.00
2022-09-17T16:36:27.681Z,20.50
2022-09-17T16:44:33.310Z,20.60
2022-09-17T16:52:41.354Z,20.50
2022-09-17T17:00:47.285Z,20.40
2022-09-17T17:08:55.523Z,20.60
2022-09-17T17:17:00.834Z,20.80
2022-09-17T17:25:09.882Z,20.60
2022-09-17T17:33:15.198Z,21.00
2022-09-17T17:41:25.577Z,20.80
2022-09-17T17:49:30.897Z,21.10
2022-09-17T17:57:38.830Z,21.10
2022-09-17T18:05:44.141Z,21.00
2022-09-17T18:13:54.747Z,20.50
2022-09-17T18:22:00.077Z,20.00
2022-09-17T18:30:09.132Z,19.90
2022-09-17T18:38:14.460Z,19.10
2022-09-17T18:46:25.491Z,19.00
2022-09-17T18:54:30.839Z,19.20
2022-09-17T19:02:38.742Z,19.30
2022-09-17T19:10:44.062Z,18.80
2022-09-17T19:18:52.090Z,19.00
2022-09-17T19:26:58.961Z,19.30
2022-09-17T19:35:08.726Z,19.60
2022-09-17T19:43:15.166Z,19.90
2022-09-17T19:51:24.220Z,19.90
2022-09-17T19:59:29.572Z,19.60
2022-09-17T20:07:37.511Z,19.30
2022-09-17T20:15:52.217Z,19.30
2022-09-17T20:24:01.016Z,19.40
2022-09-17T20:32:06.437Z,19.00
2022-09-17T20:40:16.072Z,18.60
2022-09-17T20:48:21.451Z,19.20
2022-09-17T20:56:31.553Z,19.70
2022-09-17T21:04:36.923Z,20.10
2022-09-17T21:12:44.871Z,20.10
2022-09-17T21:20:50.178Z,20.20
2022-09-17T21:28:59.394Z,20.30
2022-09-17T21:37:05.751Z,20.20
2022-09-17T21:45:13.709Z,20.00
2022-09-17T21:53:19.018Z,19.70
2022-09-17T22:01:31.211Z,19.60
2022-09-17T22:09:36.666Z,19.70
2022-09-17T22:17:44.551Z,19.80
2022-09-17T22:25:49.885Z,19.90
2022-09-17T22:33:58.010Z,19.90
2022-09-17T22:42:03.379Z,19.90
2022-09-17T22:50:12.942Z,19.90
2022-09-17T22:58:21.091Z,19.90
2022-09-17T23:06:31.031Z,19.60
2022-09-17T23:14:36.467Z,19.30
2022-09-17T23:22:44.486Z,19.40
2022-09-17T23:30:49.880Z,19.40
2022-09-17T23:38:59.693Z,19.40
2022-09-17T23:47:05.654Z,19.50
2022-09-17T23:55:13.760Z,19.50
